sensor_id;sensor_type;location;lat;lon;timestamp;P1;durP1;ratioP1;P2;durP2;ratioP2
6825;SDS011;3451;52.476;13.316;2023-04-07T00:00:59;16.73;;;9.60;;
6825;SDS011;3451;52.476;13.316;2023-04-07T00:03:25;14.80;;;9.63;;
6825;SDS011;3451;52.476;13.316;2023-04-07T00:05:53;15.03;;;10.03;;
6825;SDS011;3451;52.476;13.316;2023-04-07T00:08:19;14.20;;;9.80;;
6825;SDS011;3451;52.476;13.316;2023-04-07T00:10:45;14.77;;;9.63;;
6825;SDS011;3451;52.476;13.316;2023-04-07T00:13:12;17.83;;;9.83;;
6825;SDS011;3451;52.476;13.316;2023-04-07T00:15:38;13.27;;;9.40;;
6825;SDS011;3451;52.476;13.316;2023-04-07T00:18:05;14.97;;;10.20;;
6825;SDS011;3451;52.476;13.316;2023-04-07T00:20:31;15.50;;;9.67;;
6825;SDS011;3451;52.476;13.316;2023-04-07T00:22:57;18.63;;;10.10;;
6825;SDS011;3451;52.476;13.316;2023-04-07T00:25:23;17.33;;;10.07;;
6825;SDS011;3451;52.476;13.316;2023-04-07T00:27:50;15.73;;;10.00;;
6825;SDS011;3451;52.476;13.316;2023-04-07T00:30:16;15.70;;;9.87;;
6825;SDS011;3451;52.476;13.316;2023-04-07T00:32:43;14.70;;;9.90;;
6825;SDS011;3451;52.476;13.316;2023-04-07T00:35:10;16.03;;;10.47;;
6825;SDS011;3451;52.476;13.316;2023-04-07T00:37:37;16.60;;;10.40;;
6825;SDS011;3451;52.476;13.316;2023-04-07T00:40:03;16.93;;;10.33;;
6825;SDS011;3451;52.476;13.316;2023-04-07T00:42:30;16.00;;;11.17;;
6825;SDS011;3451;52.476;13.316;2023-04-07T00:44:56;14.43;;;9.87;;
6825;SDS011;3451;52.476;13.316;2023-04-07T00:47:22;14.27;;;9.77;;
6825;SDS011;3451;52.476;13.316;2023-04-07T00:49:49;14.47;;;9.70;;
6825;SDS011;3451;52.476;13.316;2023-04-07T00:52:15;15.67;;;10.13;;
6825;SDS011;3451;52.476;13.316;2023-04-07T00:54:42;14.47;;;9.20;;
6825;SDS011;3451;52.476;13.316;2023-04-07T00:57:09;16.87;;;10.07;;
6825;SDS011;3451;52.476;13.316;2023-04-07T00:59:36;16.00;;;10.00;;
6825;SDS011;3451;52.476;13.316;2023-04-07T01:02:04;16.00;;;9.47;;
6825;SDS011;3451;52.476;13.316;2023-04-07T01:07:08;14.63;;;8.67;;
6825;SDS011;3451;52.476;13.316;2023-04-07T01:09:43;17.00;;;9.33;;
6825;SDS011;3451;52.476;13.316;2023-04-07T01:12:14;16.60;;;8.47;;
6825;SDS011;3451;52.476;13.316;2023-04-07T01:14:47;15.90;;;9.03;;
6825;SDS011;3451;52.476;13.316;2023-04-07T01:17:15;12.10;;;8.20;;
6825;SDS011;3451;52.476;13.316;2023-04-07T01:19:43;13.80;;;8.33;;
6825;SDS011;3451;52.476;13.316;2023-04-07T01:22:13;12.50;;;8.13;;
6825;SDS011;3451;52.476;13.316;2023-04-07T01:29:54;12.07;;;7.87;;
6825;SDS011;3451;52.476;13.316;2023-04-07T01:32:21;14.87;;;7.50;;
6825;SDS011;3451;52.476;13.316;2023-04-07T01:34:49;12.30;;;7.57;;
6825;SDS011;3451;52.476;13.316;2023-04-07T01:37:17;13.13;;;8.07;;
6825;SDS011;3451;52.476;13.316;2023-04-07T01:39:44;9.50;;;7.20;;
6825;SDS011;3451;52.476;13.316;2023-04-07T01:42:10;11.30;;;7.13;;
6825;SDS011;3451;52.476;13.316;2023-04-07T01:44:37;14.50;;;8.00;;
6825;SDS011;3451;52.476;13.316;2023-04-07T01:47:04;12.93;;;7.17;;
6825;SDS011;3451;52.476;13.316;2023-04-07T01:49:31;10.83;;;6.97;;
6825;SDS011;3451;52.476;13.316;2023-04-07T01:51:58;10.20;;;7.20;;
6825;SDS011;3451;52.476;13.316;2023-04-07T01:54:24;11.87;;;7.17;;
6825;SDS011;3451;52.476;13.316;2023-04-07T01:56:51;11.53;;;7.97;;
6825;SDS011;3451;52.476;13.316;2023-04-07T01:59:17;10.87;;;7.67;;
6825;SDS011;3451;52.476;13.316;2023-04-07T02:01:43;16.67;;;7.97;;
6825;SDS011;3451;52.476;13.316;2023-04-07T02:04:11;13.20;;;8.00;;
6825;SDS011;3451;52.476;13.316;2023-04-07T02:06:41;11.33;;;7.47;;
6825;SDS011;3451;52.476;13.316;2023-04-07T02:09:09;11.47;;;6.87;;
6825;SDS011;3451;52.476;13.316;2023-04-07T02:11:36;11.07;;;6.83;;
6825;SDS011;3451;52.476;13.316;2023-04-07T02:14:04;10.20;;;7.10;;
6825;SDS011;3451;52.476;13.316;2023-04-07T02:16:32;13.13;;;7.80;;
6825;SDS011;3451;52.476;13.316;2023-04-07T02:18:59;10.57;;;6.60;;
6825;SDS011;3451;52.476;13.316;2023-04-07T02:21:26;9.90;;;6.60;;
6825;SDS011;3451;52.476;13.316;2023-04-07T02:23:52;15.77;;;7.83;;
6825;SDS011;3451;52.476;13.316;2023-04-07T02:26:19;14.40;;;7.60;;
6825;SDS011;3451;52.476;13.316;2023-04-07T02:28:45;12.47;;;7.63;;
6825;SDS011;3451;52.476;13.316;2023-04-07T02:31:11;13.23;;;7.67;;
6825;SDS011;3451;52.476;13.316;2023-04-07T02:33:38;13.33;;;8.00;;
6825;SDS011;3451;52.476;13.316;2023-04-07T02:36:05;14.33;;;8.00;;
6825;SDS011;3451;52.476;13.316;2023-04-07T02:38:31;12.43;;;7.13;;
6825;SDS011;3451;52.476;13.316;2023-04-07T02:40:58;11.33;;;7.33;;
6825;SDS011;3451;52.476;13.316;2023-04-07T02:43:24;14.13;;;8.00;;
6825;SDS011;3451;52.476;13.316;2023-04-07T02:45:51;13.37;;;7.60;;
6825;SDS011;3451;52.476;13.316;2023-04-07T02:48:17;11.33;;;7.17;;
6825;SDS011;3451;52.476;13.316;2023-04-07T02:50:44;11.20;;;7.73;;
6825;SDS011;3451;52.476;13.316;2023-04-07T02:53:10;14.33;;;7.57;;
6825;SDS011;3451;52.476;13.316;2023-04-07T02:55:36;13.30;;;7.97;;
6825;SDS011;3451;52.476;13.316;2023-04-07T02:58:03;13.10;;;7.53;;
6825;SDS011;3451;52.476;13.316;2023-04-07T03:00:29;10.43;;;7.00;;
6825;SDS011;3451;52.476;13.316;2023-04-07T03:02:55;10.80;;;7.60;;
6825;SDS011;3451;52.476;13.316;2023-04-07T03:05:22;16.17;;;7.60;;
6825;SDS011;3451;52.476;13.316;2023-04-07T03:07:48;12.77;;;6.87;;
6825;SDS011;3451;52.476;13.316;2023-04-07T03:10:14;15.10;;;7.97;;
6825;SDS011;3451;52.476;13.316;2023-04-07T03:12:41;14.23;;;8.47;;
6825;SDS011;3451;52.476;13.316;2023-04-07T03:15:08;13.43;;;7.27;;
6825;SDS011;3451;52.476;13.316;2023-04-07T03:17:34;10.53;;;7.40;;
6825;SDS011;3451;52.476;13.316;2023-04-07T03:20:00;14.50;;;7.60;;
6825;SDS011;3451;52.476;13.316;2023-04-07T03:22:27;12.87;;;7.77;;
6825;SDS011;3451;52.476;13.316;2023-04-07T03:24:53;12.07;;;7.77;;
6825;SDS011;3451;52.476;13.316;2023-04-07T03:27:19;12.57;;;7.10;;
6825;SDS011;3451;52.476;13.316;2023-04-07T03:29:46;12.27;;;7.63;;
6825;SDS011;3451;52.476;13.316;2023-04-07T03:32:12;13.40;;;7.33;;
6825;SDS011;3451;52.476;13.316;2023-04-07T03:34:38;10.30;;;7.30;;
6825;SDS011;3451;52.476;13.316;2023-04-07T03:37:04;12.60;;;7.43;;
6825;SDS011;3451;52.476;13.316;2023-04-07T03:39:31;11.70;;;7.70;;
6825;SDS011;3451;52.476;13.316;2023-04-07T03:41:57;13.13;;;7.90;;
6825;SDS011;3451;52.476;13.316;2023-04-07T03:44:23;14.87;;;8.03;;
6825;SDS011;3451;52.476;13.316;2023-04-07T03:46:50;13.57;;;8.00;;
6825;SDS011;3451;52.476;13.316;2023-04-07T03:49:16;12.67;;;7.63;;
6825;SDS011;3451;52.476;13.316;2023-04-07T03:51:43;13.43;;;7.93;;
6825;SDS011;3451;52.476;13.316;2023-04-07T03:54:10;13.13;;;7.63;;
6825;SDS011;3451;52.476;13.316;2023-04-07T03:56:36;10.73;;;7.47;;
6825;SDS011;3451;52.476;13.316;2023-04-07T03:59:03;13.93;;;6.83;;
6825;SDS011;3451;52.476;13.316;2023-04-07T04:01:29;10.53;;;7.47;;
6825;SDS011;3451;52.476;13.316;2023-04-07T04:03:56;11.57;;;7.93;;
6825;SDS011;3451;52.476;13.316;2023-04-07T04:06:23;13.03;;;7.23;;
6825;SDS011;3451;52.476;13.316;2023-04-07T04:08:50;13.33;;;8.30;;
6825;SDS011;3451;52.476;13.316;2023-04-07T04:11:16;13.20;;;8.07;;
6825;SDS011;3451;52.476;13.316;2023-04-07T04:13:42;12.03;;;7.67;;
6825;SDS011;3451;52.476;13.316;2023-04-07T04:16:09;15.50;;;7.80;;
6825;SDS011;3451;52.476;13.316;2023-04-07T04:18:36;13.10;;;8.10;;
6825;SDS011;3451;52.476;13.316;2023-04-07T04:21:03;12.00;;;7.80;;
6825;SDS011;3451;52.476;13.316;2023-04-07T04:23:29;14.07;;;8.00;;
6825;SDS011;3451;52.476;13.316;2023-04-07T04:25:55;13.00;;;8.30;;
6825;SDS011;3451;52.476;13.316;2023-04-07T04:28:22;15.07;;;7.43;;
6825;SDS011;3451;52.476;13.316;2023-04-07T04:30:49;13.73;;;7.70;;
6825;SDS011;3451;52.476;13.316;2023-04-07T04:33:15;12.53;;;8.17;;
6825;SDS011;3451;52.476;13.316;2023-04-07T04:35:42;12.23;;;8.07;;
6825;SDS011;3451;52.476;13.316;2023-04-07T04:38:08;12.53;;;7.90;;
6825;SDS011;3451;52.476;13.316;2023-04-07T04:40:35;13.47;;;8.17;;
6825;SDS011;3451;52.476;13.316;2023-04-07T04:43:01;17.10;;;8.77;;
6825;SDS011;3451;52.476;13.316;2023-04-07T04:45:32;16.57;;;8.23;;
6825;SDS011;3451;52.476;13.316;2023-04-07T04:47:58;16.37;;;7.90;;
6825;SDS011;3451;52.476;13.316;2023-04-07T04:50:24;14.13;;;8.33;;
6825;SDS011;3451;52.476;13.316;2023-04-07T04:52:51;10.80;;;7.33;;
6825;SDS011;3451;52.476;13.316;2023-04-07T04:55:17;12.80;;;7.70;;
6825;SDS011;3451;52.476;13.316;2023-04-07T04:57:43;12.63;;;7.87;;
6825;SDS011;3451;52.476;13.316;2023-04-07T05:00:10;12.47;;;7.73;;
6825;SDS011;3451;52.476;13.316;2023-04-07T05:02:36;10.83;;;7.57;;
6825;SDS011;3451;52.476;13.316;2023-04-07T05:05:03;12.63;;;8.00;;
6825;SDS011;3451;52.476;13.316;2023-04-07T05:07:30;13.27;;;8.07;;
6825;SDS011;3451;52.476;13.316;2023-04-07T05:09:56;11.80;;;8.03;;
6825;SDS011;3451;52.476;13.316;2023-04-07T05:12:23;10.50;;;7.87;;
6825;SDS011;3451;52.476;13.316;2023-04-07T05:14:49;11.23;;;7.70;;
6825;SDS011;3451;52.476;13.316;2023-04-07T05:17:15;13.53;;;8.07;;
6825;SDS011;3451;52.476;13.316;2023-04-07T05:19:41;15.93;;;8.60;;
6825;SDS011;3451;52.476;13.316;2023-04-07T05:22:08;14.43;;;8.17;;
6825;SDS011;3451;52.476;13.316;2023-04-07T05:24:34;10.70;;;8.03;;
6825;SDS011;3451;52.476;13.316;2023-04-07T05:27:00;15.23;;;9.43;;
6825;SDS011;3451;52.476;13.316;2023-04-07T05:29:27;12.87;;;8.00;;
6825;SDS011;3451;52.476;13.316;2023-04-07T05:31:53;12.87;;;8.70;;
6825;SDS011;3451;52.476;13.316;2023-04-07T05:34:20;12.33;;;8.90;;
6825;SDS011;3451;52.476;13.316;2023-04-07T05:36:46;14.23;;;8.97;;
6825;SDS011;3451;52.476;13.316;2023-04-07T05:39:12;15.47;;;9.07;;
6825;SDS011;3451;52.476;13.316;2023-04-07T05:41:38;18.00;;;8.60;;
6825;SDS011;3451;52.476;13.316;2023-04-07T05:44:05;13.33;;;8.57;;
6825;SDS011;3451;52.476;13.316;2023-04-07T05:46:32;17.60;;;8.87;;
6825;SDS011;3451;52.476;13.316;2023-04-07T05:48:58;13.67;;;9.13;;
6825;SDS011;3451;52.476;13.316;2023-04-07T05:51:38;11.23;;;8.40;;
6825;SDS011;3451;52.476;13.316;2023-04-07T05:54:04;15.80;;;9.63;;
6825;SDS011;3451;52.476;13.316;2023-04-07T05:56:31;12.30;;;8.77;;
6825;SDS011;3451;52.476;13.316;2023-04-07T05:58:57;14.10;;;9.57;;
6825;SDS011;3451;52.476;13.316;2023-04-07T06:01:25;13.90;;;9.17;;
6825;SDS011;3451;52.476;13.316;2023-04-07T06:03:53;14.47;;;8.93;;
6825;SDS011;3451;52.476;13.316;2023-04-07T06:06:19;13.23;;;9.07;;
6825;SDS011;3451;52.476;13.316;2023-04-07T06:08:45;15.20;;;9.40;;
6825;SDS011;3451;52.476;13.316;2023-04-07T06:11:12;14.23;;;9.23;;
6825;SDS011;3451;52.476;13.316;2023-04-07T06:13:38;15.67;;;9.43;;
6825;SDS011;3451;52.476;13.316;2023-04-07T06:16:05;13.40;;;9.30;;
6825;SDS011;3451;52.476;13.316;2023-04-07T06:18:31;14.53;;;9.37;;
6825;SDS011;3451;52.476;13.316;2023-04-07T06:20:58;14.57;;;9.80;;
6825;SDS011;3451;52.476;13.316;2023-04-07T06:23:24;14.67;;;8.77;;
6825;SDS011;3451;52.476;13.316;2023-04-07T06:25:50;14.00;;;9.23;;
6825;SDS011;3451;52.476;13.316;2023-04-07T06:28:18;13.13;;;9.03;;
6825;SDS011;3451;52.476;13.316;2023-04-07T06:30:45;14.80;;;9.67;;
6825;SDS011;3451;52.476;13.316;2023-04-07T06:33:11;13.77;;;10.07;;
6825;SDS011;3451;52.476;13.316;2023-04-07T06:35:38;12.57;;;9.43;;
6825;SDS011;3451;52.476;13.316;2023-04-07T06:38:04;15.93;;;9.80;;
6825;SDS011;3451;52.476;13.316;2023-04-07T06:40:31;17.07;;;10.40;;
6825;SDS011;3451;52.476;13.316;2023-04-07T06:42:57;12.23;;;9.37;;
6825;SDS011;3451;52.476;13.316;2023-04-07T06:45:23;16.40;;;9.83;;
6825;SDS011;3451;52.476;13.316;2023-04-07T06:47:50;14.20;;;9.83;;
6825;SDS011;3451;52.476;13.316;2023-04-07T06:50:17;13.30;;;8.90;;
6825;SDS011;3451;52.476;13.316;2023-04-07T06:52:45;15.40;;;9.67;;
6825;SDS011;3451;52.476;13.316;2023-04-07T06:55:12;13.37;;;9.73;;
6825;SDS011;3451;52.476;13.316;2023-04-07T06:57:38;14.67;;;9.27;;
6825;SDS011;3451;52.476;13.316;2023-04-07T07:00:05;13.60;;;8.90;;
6825;SDS011;3451;52.476;13.316;2023-04-07T07:02:32;15.23;;;9.10;;
6825;SDS011;3451;52.476;13.316;2023-04-07T07:04:59;13.47;;;9.10;;
6825;SDS011;3451;52.476;13.316;2023-04-07T07:07:26;13.00;;;9.07;;
6825;SDS011;3451;52.476;13.316;2023-04-07T07:09:52;18.97;;;10.20;;
6825;SDS011;3451;52.476;13.316;2023-04-07T07:12:19;16.23;;;9.17;;
6825;SDS011;3451;52.476;13.316;2023-04-07T07:14:45;13.83;;;8.57;;
6825;SDS011;3451;52.476;13.316;2023-04-07T07:17:11;13.03;;;9.23;;
6825;SDS011;3451;52.476;13.316;2023-04-07T07:19:38;17.27;;;10.40;;
6825;SDS011;3451;52.476;13.316;2023-04-07T07:22:04;16.23;;;9.63;;
6825;SDS011;3451;52.476;13.316;2023-04-07T07:24:30;14.77;;;10.03;;
6825;SDS011;3451;52.476;13.316;2023-04-07T07:26:59;13.67;;;9.40;;
6825;SDS011;3451;52.476;13.316;2023-04-07T07:29:26;15.40;;;9.87;;
6825;SDS011;3451;52.476;13.316;2023-04-07T07:31:53;14.07;;;9.73;;
6825;SDS011;3451;52.476;13.316;2023-04-07T07:34:20;15.93;;;9.73;;
6825;SDS011;3451;52.476;13.316;2023-04-07T07:36:47;13.50;;;9.37;;
6825;SDS011;3451;52.476;13.316;2023-04-07T07:39:13;19.97;;;9.30;;
6825;SDS011;3451;52.476;13.316;2023-04-07T07:41:39;13.17;;;9.07;;
6825;SDS011;3451;52.476;13.316;2023-04-07T07:44:06;14.03;;;8.60;;
6825;SDS011;3451;52.476;13.316;2023-04-07T07:46:33;12.77;;;8.37;;
6825;SDS011;3451;52.476;13.316;2023-04-07T07:48:59;14.53;;;8.60;;
6825;SDS011;3451;52.476;13.316;2023-04-07T07:51:26;10.40;;;7.43;;
6825;SDS011;3451;52.476;13.316;2023-04-07T07:53:53;11.40;;;7.43;;
6825;SDS011;3451;52.476;13.316;2023-04-07T07:56:19;12.97;;;8.10;;
6825;SDS011;3451;52.476;13.316;2023-04-07T07:58:46;13.00;;;7.70;;
6825;SDS011;3451;52.476;13.316;2023-04-07T08:01:13;11.80;;;7.93;;
6825;SDS011;3451;52.476;13.316;2023-04-07T08:03:39;11.10;;;7.73;;
6825;SDS011;3451;52.476;13.316;2023-04-07T08:06:06;14.97;;;8.53;;
6825;SDS011;3451;52.476;13.316;2023-04-07T08:08:34;13.20;;;8.53;;
6825;SDS011;3451;52.476;13.316;2023-04-07T08:11:00;12.97;;;8.30;;
6825;SDS011;3451;52.476;13.316;2023-04-07T08:13:27;12.20;;;7.47;;
6825;SDS011;3451;52.476;13.316;2023-04-07T08:15:53;11.63;;;6.77;;
6825;SDS011;3451;52.476;13.316;2023-04-07T08:18:19;10.90;;;5.80;;
6825;SDS011;3451;52.476;13.316;2023-04-07T08:20:46;8.83;;;6.20;;
6825;SDS011;3451;52.476;13.316;2023-04-07T08:23:12;11.13;;;6.30;;
6825;SDS011;3451;52.476;13.316;2023-04-07T08:25:38;10.63;;;6.70;;
6825;SDS011;3451;52.476;13.316;2023-04-07T08:28:05;9.87;;;5.57;;
6825;SDS011;3451;52.476;13.316;2023-04-07T08:30:31;10.27;;;5.70;;
6825;SDS011;3451;52.476;13.316;2023-04-07T08:32:58;10.60;;;5.90;;
6825;SDS011;3451;52.476;13.316;2023-04-07T08:35:24;8.53;;;5.53;;
6825;SDS011;3451;52.476;13.316;2023-04-07T08:37:50;8.80;;;5.30;;
6825;SDS011;3451;52.476;13.316;2023-04-07T08:40:17;10.13;;;5.50;;
6825;SDS011;3451;52.476;13.316;2023-04-07T08:42:46;10.00;;;5.70;;
6825;SDS011;3451;52.476;13.316;2023-04-07T08:45:15;10.97;;;6.00;;
6825;SDS011;3451;52.476;13.316;2023-04-07T08:47:41;9.33;;;5.43;;
6825;SDS011;3451;52.476;13.316;2023-04-07T08:50:09;9.00;;;5.27;;
6825;SDS011;3451;52.476;13.316;2023-04-07T08:52:39;9.83;;;5.23;;
6825;SDS011;3451;52.476;13.316;2023-04-07T08:55:07;8.50;;;5.53;;
6825;SDS011;3451;52.476;13.316;2023-04-07T08:57:33;6.90;;;5.13;;
6825;SDS011;3451;52.476;13.316;2023-04-07T09:00:00;7.87;;;5.40;;
6825;SDS011;3451;52.476;13.316;2023-04-07T09:02:34;10.07;;;5.10;;
6825;SDS011;3451;52.476;13.316;2023-04-07T09:05:04;8.87;;;5.43;;
6825;SDS011;3451;52.476;13.316;2023-04-07T09:07:31;8.43;;;5.20;;
6825;SDS011;3451;52.476;13.316;2023-04-07T09:10:00;10.47;;;6.13;;
6825;SDS011;3451;52.476;13.316;2023-04-07T09:12:27;9.73;;;5.40;;
6825;SDS011;3451;52.476;13.316;2023-04-07T09:14:54;8.40;;;5.17;;
6825;SDS011;3451;52.476;13.316;2023-04-07T09:17:20;9.17;;;5.50;;
6825;SDS011;3451;52.476;13.316;2023-04-07T09:19:47;9.97;;;5.67;;
6825;SDS011;3451;52.476;13.316;2023-04-07T09:22:13;8.40;;;5.13;;
6825;SDS011;3451;52.476;13.316;2023-04-07T09:24:40;9.80;;;6.10;;
6825;SDS011;3451;52.476;13.316;2023-04-07T09:27:07;10.23;;;6.37;;
6825;SDS011;3451;52.476;13.316;2023-04-07T09:29:34;10.17;;;5.07;;
6825;SDS011;3451;52.476;13.316;2023-04-07T09:32:01;7.63;;;4.90;;
6825;SDS011;3451;52.476;13.316;2023-04-07T09:34:28;6.70;;;4.40;;
6825;SDS011;3451;52.476;13.316;2023-04-07T09:36:55;6.57;;;4.40;;
6825;SDS011;3451;52.476;13.316;2023-04-07T09:39:22;5.77;;;4.53;;
6825;SDS011;3451;52.476;13.316;2023-04-07T09:41:48;6.40;;;4.30;;
6825;SDS011;3451;52.476;13.316;2023-04-07T09:44:15;6.07;;;4.13;;
6825;SDS011;3451;52.476;13.316;2023-04-07T09:46:51;6.33;;;4.20;;
6825;SDS011;3451;52.476;13.316;2023-04-07T09:49:19;7.63;;;3.70;;
6825;SDS011;3451;52.476;13.316;2023-04-07T09:54:37;6.83;;;3.67;;
6825;SDS011;3451;52.476;13.316;2023-04-07T09:57:04;7.93;;;3.80;;
6825;SDS011;3451;52.476;13.316;2023-04-07T09:59:31;7.00;;;4.20;;
6825;SDS011;3451;52.476;13.316;2023-04-07T10:01:58;4.93;;;3.13;;
6825;SDS011;3451;52.476;13.316;2023-04-07T10:04:25;7.40;;;3.60;;
6825;SDS011;3451;52.476;13.316;2023-04-07T10:06:55;5.73;;;3.73;;
6825;SDS011;3451;52.476;13.316;2023-04-07T10:09:27;6.67;;;3.90;;
6825;SDS011;3451;52.476;13.316;2023-04-07T10:11:55;7.40;;;4.13;;
6825;SDS011;3451;52.476;13.316;2023-04-07T10:14:26;5.20;;;3.80;;
6825;SDS011;3451;52.476;13.316;2023-04-07T10:16:52;6.53;;;3.87;;
6825;SDS011;3451;52.476;13.316;2023-04-07T10:19:19;6.20;;;3.63;;
6825;SDS011;3451;52.476;13.316;2023-04-07T10:21:46;5.73;;;3.37;;
6825;SDS011;3451;52.476;13.316;2023-04-07T10:24:18;6.40;;;3.43;;
6825;SDS011;3451;52.476;13.316;2023-04-07T10:26:52;4.73;;;3.17;;
6825;SDS011;3451;52.476;13.316;2023-04-07T10:29:19;5.27;;;3.40;;
6825;SDS011;3451;52.476;13.316;2023-04-07T10:31:46;5.53;;;3.77;;
6825;SDS011;3451;52.476;13.316;2023-04-07T10:34:12;6.00;;;3.80;;
6825;SDS011;3451;52.476;13.316;2023-04-07T10:39:23;6.97;;;3.80;;
6825;SDS011;3451;52.476;13.316;2023-04-07T10:41:50;8.90;;;4.03;;
6825;SDS011;3451;52.476;13.316;2023-04-07T10:47:03;5.90;;;3.60;;
6825;SDS011;3451;52.476;13.316;2023-04-07T10:49:34;6.10;;;4.03;;
6825;SDS011;3451;52.476;13.316;2023-04-07T10:54:40;5.27;;;3.70;;
6825;SDS011;3451;52.476;13.316;2023-04-07T10:57:10;6.07;;;4.17;;
6825;SDS011;3451;52.476;13.316;2023-04-07T10:59:38;7.97;;;3.50;;
6825;SDS011;3451;52.476;13.316;2023-04-07T11:04:38;5.07;;;3.60;;
6825;SDS011;3451;52.476;13.316;2023-04-07T11:07:05;7.73;;;4.10;;
6825;SDS011;3451;52.476;13.316;2023-04-07T11:09:31;6.67;;;3.57;;
6825;SDS011;3451;52.476;13.316;2023-04-07T11:11:58;6.20;;;3.60;;
6825;SDS011;3451;52.476;13.316;2023-04-07T11:14:25;7.13;;;4.00;;
6825;SDS011;3451;52.476;13.316;2023-04-07T11:16:52;6.83;;;4.33;;
6825;SDS011;3451;52.476;13.316;2023-04-07T11:19:18;6.30;;;4.00;;
6825;SDS011;3451;52.476;13.316;2023-04-07T11:21:45;9.13;;;4.63;;
6825;SDS011;3451;52.476;13.316;2023-04-07T11:26:56;8.97;;;4.70;;
6825;SDS011;3451;52.476;13.316;2023-04-07T11:29:26;8.23;;;4.63;;
6825;SDS011;3451;52.476;13.316;2023-04-07T11:31:53;8.33;;;4.57;;
6825;SDS011;3451;52.476;13.316;2023-04-07T11:34:20;6.37;;;4.73;;
6825;SDS011;3451;52.476;13.316;2023-04-07T11:36:47;7.20;;;4.67;;
6825;SDS011;3451;52.476;13.316;2023-04-07T11:39:17;6.37;;;4.60;;
6825;SDS011;3451;52.476;13.316;2023-04-07T11:41:46;8.27;;;4.60;;
6825;SDS011;3451;52.476;13.316;2023-04-07T11:44:13;7.73;;;5.17;;
6825;SDS011;3451;52.476;13.316;2023-04-07T11:46:58;8.33;;;4.90;;
6825;SDS011;3451;52.476;13.316;2023-04-07T11:49:26;7.67;;;4.80;;
6825;SDS011;3451;52.476;13.316;2023-04-07T11:51:57;8.10;;;5.00;;
6825;SDS011;3451;52.476;13.316;2023-04-07T11:54:24;9.03;;;5.17;;
6825;SDS011;3451;52.476;13.316;2023-04-07T11:56:50;7.40;;;5.10;;
6825;SDS011;3451;52.476;13.316;2023-04-07T11:59:23;8.03;;;5.33;;
6825;SDS011;3451;52.476;13.316;2023-04-07T12:01:50;11.20;;;5.67;;
6825;SDS011;3451;52.476;13.316;2023-04-07T12:04:20;9.30;;;6.10;;
6825;SDS011;3451;52.476;13.316;2023-04-07T12:06:47;8.47;;;5.80;;
6825;SDS011;3451;52.476;13.316;2023-04-07T12:09:26;8.80;;;6.00;;
6825;SDS011;3451;52.476;13.316;2023-04-07T12:11:54;9.57;;;6.60;;
6825;SDS011;3451;52.476;13.316;2023-04-07T12:14:22;9.97;;;7.20;;
6825;SDS011;3451;52.476;13.316;2023-04-07T12:16:49;8.97;;;5.07;;
6825;SDS011;3451;52.476;13.316;2023-04-07T12:19:15;6.60;;;4.93;;
6825;SDS011;3451;52.476;13.316;2023-04-07T12:21:42;7.80;;;5.37;;
6825;SDS011;3451;52.476;13.316;2023-04-07T12:24:08;10.33;;;5.00;;
6825;SDS011;3451;52.476;13.316;2023-04-07T12:26:35;8.13;;;5.70;;
6825;SDS011;3451;52.476;13.316;2023-04-07T12:29:01;9.43;;;6.40;;
6825;SDS011;3451;52.476;13.316;2023-04-07T12:31:30;11.20;;;6.60;;
6825;SDS011;3451;52.476;13.316;2023-04-07T12:33:58;10.07;;;6.23;;
6825;SDS011;3451;52.476;13.316;2023-04-07T12:36:24;10.30;;;5.40;;
6825;SDS011;3451;52.476;13.316;2023-04-07T12:38:52;7.80;;;5.53;;
6825;SDS011;3451;52.476;13.316;2023-04-07T12:41:19;7.30;;;5.40;;
6825;SDS011;3451;52.476;13.316;2023-04-07T12:43:45;9.63;;;5.50;;
6825;SDS011;3451;52.476;13.316;2023-04-07T12:46:12;8.67;;;5.40;;
6825;SDS011;3451;52.476;13.316;2023-04-07T12:48:38;7.60;;;4.97;;
6825;SDS011;3451;52.476;13.316;2023-04-07T12:51:05;8.17;;;5.00;;
6825;SDS011;3451;52.476;13.316;2023-04-07T12:53:31;7.53;;;4.80;;
6825;SDS011;3451;52.476;13.316;2023-04-07T12:55:57;7.00;;;4.57;;
6825;SDS011;3451;52.476;13.316;2023-04-07T12:58:24;6.10;;;4.17;;
6825;SDS011;3451;52.476;13.316;2023-04-07T13:00:51;6.20;;;4.23;;
6825;SDS011;3451;52.476;13.316;2023-04-07T13:03:18;5.23;;;3.77;;
6825;SDS011;3451;52.476;13.316;2023-04-07T13:05:45;5.63;;;3.87;;
6825;SDS011;3451;52.476;13.316;2023-04-07T13:08:11;6.37;;;4.00;;
6825;SDS011;3451;52.476;13.316;2023-04-07T13:10:37;5.87;;;3.73;;
6825;SDS011;3451;52.476;13.316;2023-04-07T13:13:04;4.57;;;3.40;;
6825;SDS011;3451;52.476;13.316;2023-04-07T13:15:30;6.07;;;4.13;;
6825;SDS011;3451;52.476;13.316;2023-04-07T13:17:56;6.40;;;4.40;;
6825;SDS011;3451;52.476;13.316;2023-04-07T13:20:23;7.17;;;4.87;;
6825;SDS011;3451;52.476;13.316;2023-04-07T13:22:53;7.53;;;4.53;;
6825;SDS011;3451;52.476;13.316;2023-04-07T13:25:33;6.43;;;4.60;;
6825;SDS011;3451;52.476;13.316;2023-04-07T13:28:00;6.00;;;3.83;;
6825;SDS011;3451;52.476;13.316;2023-04-07T13:30:26;6.03;;;4.10;;
6825;SDS011;3451;52.476;13.316;2023-04-07T13:32:52;6.00;;;3.87;;
6825;SDS011;3451;52.476;13.316;2023-04-07T13:35:19;5.97;;;3.70;;
6825;SDS011;3451;52.476;13.316;2023-04-07T13:37:46;4.97;;;3.60;;
6825;SDS011;3451;52.476;13.316;2023-04-07T13:40:12;5.13;;;3.60;;
6825;SDS011;3451;52.476;13.316;2023-04-07T13:42:38;5.57;;;3.43;;
6825;SDS011;3451;52.476;13.316;2023-04-07T13:45:05;6.30;;;3.63;;
6825;SDS011;3451;52.476;13.316;2023-04-07T13:47:31;6.50;;;4.07;;
6825;SDS011;3451;52.476;13.316;2023-04-07T13:50:00;5.87;;;4.40;;
6825;SDS011;3451;52.476;13.316;2023-04-07T13:52:26;6.73;;;4.30;;
6825;SDS011;3451;52.476;13.316;2023-04-07T13:54:53;6.63;;;4.13;;
6825;SDS011;3451;52.476;13.316;2023-04-07T13:57:20;8.37;;;4.93;;
6825;SDS011;3451;52.476;13.316;2023-04-07T13:59:47;8.67;;;5.90;;
6825;SDS011;3451;52.476;13.316;2023-04-07T14:02:14;7.40;;;5.33;;
6825;SDS011;3451;52.476;13.316;2023-04-07T14:04:40;7.13;;;4.73;;
6825;SDS011;3451;52.476;13.316;2023-04-07T14:07:07;6.30;;;5.10;;
6825;SDS011;3451;52.476;13.316;2023-04-07T14:09:33;5.80;;;4.43;;
6825;SDS011;3451;52.476;13.316;2023-04-07T14:12:00;6.57;;;4.63;;
6825;SDS011;3451;52.476;13.316;2023-04-07T14:14:26;9.60;;;4.87;;
6825;SDS011;3451;52.476;13.316;2023-04-07T14:16:53;6.87;;;5.03;;
6825;SDS011;3451;52.476;13.316;2023-04-07T14:19:20;6.57;;;5.23;;
6825;SDS011;3451;52.476;13.316;2023-04-07T14:21:49;6.57;;;5.10;;
6825;SDS011;3451;52.476;13.316;2023-04-07T14:24:16;8.03;;;5.40;;
6825;SDS011;3451;52.476;13.316;2023-04-07T14:26:42;7.63;;;5.27;;
6825;SDS011;3451;52.476;13.316;2023-04-07T14:29:10;8.40;;;5.43;;
6825;SDS011;3451;52.476;13.316;2023-04-07T14:31:37;6.13;;;4.67;;
6825;SDS011;3451;52.476;13.316;2023-04-07T14:34:04;6.67;;;4.50;;
6825;SDS011;3451;52.476;13.316;2023-04-07T14:36:30;6.80;;;4.93;;
6825;SDS011;3451;52.476;13.316;2023-04-07T14:38:56;8.70;;;5.03;;
6825;SDS011;3451;52.476;13.316;2023-04-07T14:41:23;6.73;;;4.70;;
6825;SDS011;3451;52.476;13.316;2023-04-07T14:43:50;7.60;;;4.90;;
6825;SDS011;3451;52.476;13.316;2023-04-07T14:46:21;6.63;;;4.47;;
6825;SDS011;3451;52.476;13.316;2023-04-07T14:48:48;7.67;;;4.63;;
6825;SDS011;3451;52.476;13.316;2023-04-07T14:51:17;5.10;;;4.20;;
6825;SDS011;3451;52.476;13.316;2023-04-07T14:53:43;8.03;;;4.07;;
6825;SDS011;3451;52.476;13.316;2023-04-07T14:56:11;5.93;;;4.60;;
6825;SDS011;3451;52.476;13.316;2023-04-07T14:58:38;5.17;;;3.93;;
6825;SDS011;3451;52.476;13.316;2023-04-07T15:01:06;5.40;;;4.20;;
6825;SDS011;3451;52.476;13.316;2023-04-07T15:03:32;6.77;;;4.33;;
6825;SDS011;3451;52.476;13.316;2023-04-07T15:06:00;5.60;;;4.00;;
6825;SDS011;3451;52.476;13.316;2023-04-07T15:08:26;5.80;;;4.23;;
6825;SDS011;3451;52.476;13.316;2023-04-07T15:10:52;6.57;;;4.10;;
6825;SDS011;3451;52.476;13.316;2023-04-07T15:13:19;4.33;;;3.37;;
6825;SDS011;3451;52.476;13.316;2023-04-07T15:15:45;6.30;;;3.90;;